createdAt,value
2023-04-29T00:01:42.123Z,10.40
2023-04-29T00:04:09.564Z,11.10
2023-04-29T00:06:37.389Z,10.10
2023-04-29T00:09:04.687Z,10.00
2023-04-29T00:11:31.724Z,10.10
2023-04-29T00:13:58.601Z,10.50
2023-04-29T00:16:26.206Z,11.50
2023-04-29T00:18:53.150Z,13.30
2023-04-29T00:21:21.050Z,14.80
2023-04-29T00:23:48.046Z,12.60
2023-04-29T00:26:15.241Z,11.20
2023-04-29T00:28:43.178Z,11.00
2023-04-29T00:31:10.389Z,10.40
2023-04-29T00:33:37.295Z,10.80
2023-04-29T00:36:04.712Z,11.00
2023-04-29T00:38:31.607Z,10.20
2023-04-29T00:40:58.475Z,10.40
2023-04-29T00:43:25.333Z,9.80
2023-04-29T00:45:52.332Z,10.10
2023-04-29T00:48:19.369Z,9.80
2023-04-29T00:50:46.287Z,9.90
2023-04-29T00:53:13.419Z,9.60
2023-04-29T00:55:41.161Z,9.80
2023-04-29T00:58:10.046Z,9.60
2023-04-29T01:00:37.218Z,9.00
2023-04-29T01:03:05.325Z,11.00
2023-04-29T01:05:33.025Z,9.50
2023-04-29T01:08:29.164Z,10.70
2023-04-29T01:11:16.500Z,9.30
2023-04-29T01:13:50.156Z,10.20
2023-04-29T01:16:42.727Z,8.90
2023-04-29T01:21:50.991Z,10.00
2023-04-29T01:24:18.121Z,10.10
2023-04-29T01:26:52.709Z,9.70
2023-04-29T01:29:45.872Z,9.80
2023-04-29T01:32:15.682Z,10.80
2023-04-29T01:35:19.113Z,9.70
2023-04-29T01:38:05.434Z,8.60
2023-04-29T01:40:37.704Z,8.80
2023-04-29T01:43:11.898Z,8.10
2023-04-29T01:45:41.431Z,9.20
2023-04-29T01:48:09.122Z,9.10
2023-04-29T01:50:36.026Z,7.60
2023-04-29T01:53:12.131Z,8.30
2023-04-29T01:55:39.393Z,8.40
2023-04-29T01:58:20.998Z,8.40
2023-04-29T02:01:14.348Z,7.50
2023-04-29T02:03:41.639Z,8.00
2023-04-29T02:06:10.013Z,7.50
2023-04-29T02:08:37.487Z,7.90
2023-04-29T02:11:04.455Z,8.60
2023-04-29T02:13:34.047Z,7.80
2023-04-29T02:16:08.870Z,8.80
2023-04-29T02:18:36.405Z,7.80
2023-04-29T02:21:04.564Z,8.50
2023-04-29T02:23:34.018Z,8.30
2023-04-29T02:26:01.823Z,8.50
2023-04-29T02:28:28.995Z,8.10
2023-04-29T02:30:55.968Z,8.40
2023-04-29T02:33:22.895Z,8.70
2023-04-29T02:35:49.787Z,8.50
2023-04-29T02:38:16.885Z,8.30
2023-04-29T02:40:46.512Z,9.10
2023-04-29T02:43:13.366Z,8.30
2023-04-29T02:45:40.317Z,8.40
2023-04-29T02:48:07.319Z,9.00
2023-04-29T02:50:34.436Z,8.80
2023-04-29T02:53:01.537Z,10.10
2023-04-29T02:55:28.486Z,9.70
2023-04-29T02:57:58.251Z,9.90
2023-04-29T03:00:25.503Z,10.00
2023-04-29T03:02:52.544Z,8.60
2023-04-29T03:05:19.740Z,9.70
2023-04-29T03:07:46.728Z,10.60
2023-04-29T03:10:14.008Z,9.10
2023-04-29T03:12:41.099Z,8.90
2023-04-29T03:15:08.377Z,8.20
2023-04-29T03:17:35.409Z,8.20
2023-04-29T03:20:02.460Z,8.90
2023-04-29T03:22:29.539Z,9.30
2023-04-29T03:24:56.519Z,9.00
2023-04-29T03:27:23.464Z,8.80
2023-04-29T03:32:03.008Z,8.40
2023-04-29T03:34:30.505Z,8.60
2023-04-29T03:37:14.142Z,9.30
2023-04-29T03:39:46.295Z,9.30
2023-04-29T03:42:14.104Z,8.40
2023-04-29T03:44:41.039Z,9.10
2023-04-29T03:47:09.497Z,8.60
2023-04-29T03:49:36.536Z,9.60
2023-04-29T03:52:04.846Z,9.80
2023-04-29T03:54:31.699Z,10.30
2023-04-29T03:56:58.720Z,9.80
2023-04-29T03:59:25.800Z,10.50
2023-04-29T04:01:54.387Z,8.80
2023-04-29T04:04:22.180Z,9.10
2023-04-29T04:06:51.774Z,8.70
2023-04-29T04:09:20.681Z,7.90
2023-04-29T04:11:47.776Z,8.90
2023-04-29T04:14:14.887Z,8.80
2023-04-29T04:16:41.997Z,8.90
2023-04-29T04:19:09.849Z,8.00
2023-04-29T04:21:37.921Z,7.20
2023-04-29T04:24:07.112Z,7.50
2023-04-29T04:26:35.359Z,8.20
2023-04-29T04:29:08.436Z,7.00
2023-04-29T04:31:46.918Z,7.00
2023-04-29T04:34:14.500Z,6.40
2023-04-29T04:36:42.357Z,7.90
2023-04-29T04:39:09.436Z,7.30
2023-04-29T04:41:36.331Z,6.90
2023-04-29T04:44:03.454Z,7.60
2023-04-29T04:46:40.181Z,7.70
2023-04-29T04:49:16.017Z,9.20
2023-04-29T04:51:49.134Z,8.50
2023-04-29T04:54:15.983Z,9.40
2023-04-29T04:56:43.188Z,9.40
2023-04-29T04:59:10.099Z,8.70
2023-04-29T05:01:37.645Z,9.00
2023-04-29T05:04:04.774Z,8.70
2023-04-29T05:06:31.841Z,8.50
2023-04-29T05:08:59.474Z,9.00
2023-04-29T05:11:26.393Z,8.50
2023-04-29T05:14:08.934Z,9.40
2023-04-29T05:16:36.017Z,11.00
2023-04-29T05:19:02.937Z,10.00
2023-04-29T05:21:32.551Z,9.30
2023-04-29T05:23:59.715Z,10.60
2023-04-29T05:26:26.611Z,9.70
2023-04-29T05:28:55.516Z,9.70
2023-04-29T05:31:22.535Z,10.40
2023-04-29T05:33:49.641Z,10.30
2023-04-29T05:36:16.792Z,10.40
2023-04-29T05:38:45.372Z,10.10
2023-04-29T05:41:14.239Z,10.20
2023-04-29T05:44:00.027Z,11.00
2023-04-29T05:46:27.076Z,10.60
2023-04-29T05:48:54.095Z,12.40
2023-04-29T05:51:21.041Z,12.80
2023-04-29T05:53:49.092Z,12.50
2023-04-29T05:56:16.672Z,8.20
2023-04-29T05:58:43.553Z,7.70
2023-04-29T06:01:10.683Z,8.20
2023-04-29T06:03:37.874Z,8.70
2023-04-29T06:06:43.837Z,9.80
2023-04-29T06:09:46.268Z,9.40
2023-04-29T06:12:13.457Z,10.20
2023-04-29T06:14:42.372Z,9.60
2023-04-29T06:17:09.279Z,8.60
2023-04-29T06:19:36.323Z,7.70
2023-04-29T06:22:03.365Z,7.10
2023-04-29T06:24:30.950Z,6.80
2023-04-29T06:26:58.103Z,6.30
2023-04-29T06:29:26.216Z,5.60
2023-04-29T06:31:54.418Z,5.40
2023-04-29T06:34:21.481Z,6.00
2023-04-29T06:37:08.719Z,5.70
2023-04-29T06:40:08.591Z,5.30
2023-04-29T06:42:58.882Z,5.70
2023-04-29T06:46:00.950Z,5.80
2023-04-29T06:48:39.727Z,5.40
2023-04-29T06:51:07.149Z,5.30
2023-04-29T06:53:36.806Z,5.40
2023-04-29T06:56:03.804Z,4.90
2023-04-29T06:58:30.825Z,4.40
2023-04-29T07:00:57.760Z,4.80
2023-04-29T07:03:24.791Z,4.60
2023-04-29T07:05:51.898Z,4.20
2023-04-29T07:08:18.910Z,4.80
2023-04-29T07:10:54.607Z,4.00
2023-04-29T07:13:24.095Z,4.40
2023-04-29T07:15:51.159Z,4.30
2023-04-29T07:18:18.451Z,3.90
2023-04-29T07:20:46.118Z,3.90
2023-04-29T07:23:13.173Z,4.20
2023-04-29T07:25:41.264Z,4.10
2023-04-29T07:28:11.021Z,3.80
2023-04-29T07:30:37.858Z,4.50
2023-04-29T07:33:04.890Z,4.00
2023-04-29T07:35:32.077Z,4.10
2023-04-29T07:37:58.955Z,3.90
2023-04-29T07:40:26.397Z,3.70
2023-04-29T07:42:56.614Z,4.00
2023-04-29T07:45:23.456Z,3.30
2023-04-29T07:47:50.482Z,3.10
2023-04-29T07:50:17.488Z,3.20
2023-04-29T07:52:44.414Z,3.80
2023-04-29T07:55:11.314Z,3.80
2023-04-29T07:57:38.839Z,3.20
2023-04-29T08:00:07.203Z,2.70
2023-04-29T08:02:42.723Z,2.40
2023-04-29T08:05:12.201Z,3.00
2023-04-29T08:07:39.346Z,3.50
2023-04-29T08:10:06.868Z,2.90
2023-04-29T08:12:37.118Z,2.90
2023-04-29T08:15:05.042Z,3.00
2023-04-29T08:17:32.078Z,3.90
2023-04-29T08:20:01.423Z,2.90
2023-04-29T08:22:28.284Z,2.80
2023-04-29T08:24:55.191Z,3.40
2023-04-29T08:27:22.085Z,3.10
2023-04-29T08:29:49.230Z,2.80
2023-04-29T08:35:08.640Z,3.40
2023-04-29T08:37:35.504Z,3.00
2023-04-29T08:40:03.801Z,3.10
2023-04-29T08:42:34.365Z,2.60
2023-04-29T08:45:01.594Z,2.90
2023-04-29T08:47:31.933Z,2.80
2023-04-29T08:50:05.983Z,2.60
2023-04-29T08:52:33.119Z,4.00
2023-04-29T08:55:02.520Z,3.10
2023-04-29T08:57:30.258Z,3.00
2023-04-29T08:59:59.584Z,3.00
2023-04-29T09:02:26.486Z,3.30
2023-04-29T09:05:06.088Z,3.40
2023-04-29T09:07:33.307Z,3.90
2023-04-29T09:10:00.183Z,3.50
2023-04-29T09:12:27.090Z,4.00
2023-04-29T09:14:54.192Z,3.30
2023-04-29T09:17:42.387Z,3.70
2023-04-29T09:20:21.841Z,3.50
2023-04-29T09:22:52.955Z,3.50
2023-04-29T09:25:20.878Z,3.10
2023-04-29T09:27:47.864Z,3.90
2023-04-29T09:30:16.637Z,2.90
2023-04-29T09:32:45.170Z,3.00
2023-04-29T09:35:21.329Z,3.40
2023-04-29T09:37:48.245Z,3.40
2023-04-29T09:40:31.761Z,3.10
2023-04-29T09:42:59.249Z,3.70
2023-04-29T09:45:58.778Z,6.80
2023-04-29T09:48:27.129Z,5.00
2023-04-29T09:51:02.276Z,4.80
2023-04-29T09:53:31.769Z,3.90
2023-04-29T09:56:02.451Z,4.00
2023-04-29T09:58:40.408Z,3.70
2023-04-29T10:01:07.586Z,3.50
2023-04-29T10:03:36.054Z,3.70
2023-04-29T10:06:04.640Z,3.60
2023-04-29T10:08:31.901Z,2.90
2023-04-29T10:11:02.924Z,3.70
2023-04-29T10:13:29.914Z,3.20
2023-04-29T10:16:27.852Z,3.10
2023-04-29T10:18:56.540Z,3.00
2023-04-29T10:21:27.790Z,3.40
2023-04-29T10:23:54.755Z,3.10
2023-04-29T10:26:21.621Z,3.10
2023-04-29T10:28:48.631Z,3.00
2023-04-29T10:31:16.883Z,2.90
2023-04-29T10:33:46.037Z,3.60
2023-04-29T10:36:13.198Z,2.90
2023-04-29T10:38:41.822Z,2.70
2023-04-29T10:41:10.696Z,2.80
2023-04-29T10:43:37.603Z,2.50
2023-04-29T10:46:16.718Z,2.80
2023-04-29T10:48:44.387Z,2.40
2023-04-29T10:51:11.283Z,2.20
2023-04-29T10:54:07.654Z,2.60
2023-04-29T10:56:38.708Z,2.10
2023-04-29T10:59:08.357Z,2.60
2023-04-29T11:01:51.926Z,2.30
2023-04-29T11:04:20.246Z,2.90
2023-04-29T11:06:54.843Z,3.30
2023-04-29T11:09:27.645Z,2.40
2023-04-29T11:12:03.685Z,2.30
2023-04-29T11:14:38.950Z,2.50
2023-04-29T11:17:09.405Z,2.50
2023-04-29T11:19:45.562Z,2.70
2023-04-29T11:22:18.783Z,2.60
2023-04-29T11:25:02.231Z,1.80
2023-04-29T11:27:33.490Z,2.00
2023-04-29T11:30:00.951Z,2.40
2023-04-29T11:32:29.038Z,2.30
2023-04-29T11:34:56.528Z,1.80
2023-04-29T11:37:26.210Z,2.10
2023-04-29T11:39:59.599Z,2.90
2023-04-29T11:42:27.342Z,1.90
2023-04-29T11:44:58.063Z,1.80
2023-04-29T11:47:29.560Z,2.10
2023-04-29T11:50:07.984Z,2.30
2023-04-29T11:52:39.194Z,2.30
2023-04-29T11:55:09.031Z,1.50
2023-04-29T11:57:36.746Z,1.70
2023-04-29T12:00:07.289Z,2.10
2023-04-29T12:02:35.812Z,2.00
2023-04-29T12:07:35.044Z,2.10
2023-04-29T12:10:01.967Z,1.50
2023-04-29T12:12:31.086Z,2.00
2023-04-29T12:15:00.846Z,1.90
2023-04-29T12:17:30.429Z,1.70
2023-04-29T12:19:59.547Z,1.90
2023-04-29T12:22:39.165Z,2.00
2023-04-29T12:25:07.426Z,1.60
2023-04-29T12:27:35.834Z,2.50
2023-04-29T12:30:05.375Z,2.00
2023-04-29T12:32:34.444Z,2.20
2023-04-29T12:35:06.363Z,2.30
2023-04-29T12:37:36.342Z,2.20
2023-04-29T12:40:03.970Z,2.00
2023-04-29T12:42:34.532Z,2.00
2023-04-29T12:45:01.463Z,2.90
2023-04-29T12:47:33.900Z,2.20
2023-04-29T12:50:01.028Z,2.30
2023-04-29T12:52:28.390Z,2.20
2023-04-29T12:54:56.575Z,2.10
2023-04-29T12:57:25.237Z,2.80
2023-04-29T12:59:52.582Z,2.30
2023-04-29T13:02:19.653Z,2.00
2023-04-29T13:04:49.304Z,2.00
2023-04-29T13:07:19.482Z,1.90
2023-04-29T13:09:46.618Z,2.30
2023-04-29T13:12:13.494Z,2.40
2023-04-29T13:14:40.444Z,2.20
2023-04-29T13:17:07.346Z,1.90
2023-04-29T13:19:49.616Z,3.00
2023-04-29T13:22:18.424Z,3.20
2023-04-29T13:24:45.980Z,3.10
2023-04-29T13:27:12.967Z,2.30
2023-04-29T13:29:40.207Z,1.90
2023-04-29T13:32:08.379Z,2.00
2023-04-29T13:34:36.057Z,1.70
2023-04-29T13:37:02.951Z,1.80
2023-04-29T13:39:29.921Z,2.20
2023-04-29T13:41:59.279Z,1.60
2023-04-29T13:44:33.227Z,1.60
2023-04-29T13:47:06.955Z,2.20
2023-04-29T13:56:15.557Z,1.60
2023-04-29T14:10:32.907Z,1.70
2023-04-29T14:12:59.898Z,2.00
2023-04-29T14:15:27.034Z,1.60
2023-04-29T14:17:55.252Z,2.50
2023-04-29T14:20:22.393Z,2.10
2023-04-29T14:22:49.246Z,1.80
2023-04-29T14:25:16.246Z,2.00
2023-04-29T14:27:43.155Z,2.80
2023-04-29T14:30:10.496Z,1.80
2023-04-29T14:32:37.449Z,2.20
2023-04-29T14:35:04.986Z,2.00
2023-04-29T14:37:31.888Z,2.60
2023-04-29T14:39:58.826Z,3.90
2023-04-29T14:42:25.752Z,3.50
2023-04-29T14:44:54.560Z,2.40
2023-04-29T14:47:21.968Z,1.90
2023-04-29T14:49:48.849Z,2.40
2023-04-29T14:52:16.208Z,2.00
2023-04-29T14:54:43.113Z,1.50
2023-04-29T14:57:10.864Z,2.10
2023-04-29T14:59:37.776Z,1.10
2023-04-29T15:02:04.810Z,1.60
2023-04-29T15:04:31.850Z,1.70
2023-04-29T15:06:58.822Z,1.90
2023-04-29T15:09:27.019Z,1.40
2023-04-29T15:11:53.959Z,1.70
2023-04-29T15:14:21.019Z,3.40
2023-04-29T15:16:49.118Z,3.70
2023-04-29T15:19:16.127Z,3.50
2023-04-29T15:21:43.037Z,2.60
2023-04-29T15:24:09.944Z,4.00
2023-04-29T15:26:37.269Z,3.50
2023-04-29T15:29:04.249Z,2.90
2023-04-29T15:31:31.204Z,2.90
2023-04-29T15:33:58.636Z,1.70
2023-04-29T15:36:32.513Z,2.60
2023-04-29T15:39:04.408Z,2.00
2023-04-29T15:41:31.271Z,1.80
2023-04-29T15:43:58.263Z,1.80
2023-04-29T15:49:31.199Z,2.30
2023-04-29T15:51:59.168Z,2.50
2023-04-29T15:54:26.232Z,1.90
2023-04-29T15:56:53.432Z,2.30
2023-04-29T15:59:20.432Z,1.70
2023-04-29T16:01:47.403Z,1.50
2023-04-29T16:04:16.896Z,1.70
2023-04-29T16:06:43.960Z,2.00
2023-04-29T16:09:12.384Z,2.40
2023-04-29T16:11:39.352Z,1.90
2023-04-29T16:14:06.518Z,1.80
2023-04-29T16:16:33.493Z,2.10
2023-04-29T16:19:00.388Z,1.60
2023-04-29T16:21:27.756Z,1.90
2023-04-29T16:23:54.722Z,2.20
2023-04-29T16:26:21.670Z,2.10
2023-04-29T16:28:48.537Z,2.50
2023-04-29T16:31:15.809Z,1.90
2023-04-29T16:33:42.830Z,2.10
2023-04-29T16:36:09.916Z,3.20
2023-04-29T16:38:38.344Z,3.00
2023-04-29T16:48:45.899Z,2.10
2023-04-29T16:51:12.879Z,1.90
2023-04-29T16:53:39.843Z,1.60
2023-04-29T16:56:07.520Z,2.40
2023-04-29T16:58:41.060Z,2.30
2023-04-29T17:01:09.383Z,3.60
2023-04-29T17:03:36.676Z,4.20
2023-04-29T17:06:05.069Z,1.90
2023-04-29T17:08:32.038Z,2.20
2023-04-29T17:11:03.816Z,2.80
2023-04-29T17:13:30.760Z,2.20
2023-04-29T17:15:57.764Z,2.40
2023-04-29T17:18:28.272Z,3.30
2023-04-29T17:20:55.892Z,2.70
2023-04-29T17:23:22.743Z,2.70
2023-04-29T17:25:49.736Z,3.30
2023-04-29T17:28:21.346Z,7.70
2023-04-29T17:30:59.749Z,3.50
2023-04-29T17:33:35.060Z,3.10
2023-04-29T17:36:03.595Z,3.60
2023-04-29T17:38:30.738Z,3.70
2023-04-29T17:40:57.940Z,3.50
2023-04-29T17:43:25.232Z,2.90
2023-04-29T17:45:52.256Z,4.70
2023-04-29T17:48:20.502Z,3.50
2023-04-29T17:50:49.543Z,3.70
2023-04-29T17:53:16.831Z,3.00
2023-04-29T17:55:47.154Z,9.20
2023-04-29T17:58:14.068Z,7.40
2023-04-29T18:00:41.866Z,5.80
2023-04-29T18:03:08.896Z,3.80
2023-04-29T18:05:35.902Z,4.10
2023-04-29T18:08:02.900Z,4.80
2023-04-29T18:10:30.358Z,4.70
2023-04-29T18:12:57.533Z,4.40
2023-04-29T18:15:24.456Z,4.00
2023-04-29T18:17:56.300Z,4.90
2023-04-29T18:20:23.393Z,3.50
2023-04-29T18:22:50.740Z,3.40
2023-04-29T18:25:17.754Z,4.20
2023-04-29T18:27:44.577Z,3.80
2023-04-29T18:30:11.749Z,3.80
2023-04-29T18:32:41.419Z,3.90
2023-04-29T18:35:10.625Z,3.10
2023-04-29T18:37:37.738Z,3.20
2023-04-29T18:40:05.784Z,3.00
2023-04-29T18:42:33.224Z,4.10
2023-04-29T18:45:00.167Z,3.90
2023-04-29T18:47:27.175Z,3.70
2023-04-29T18:49:57.517Z,3.80
2023-04-29T18:52:24.631Z,5.80
2023-04-29T18:54:57.008Z,3.70
2023-04-29T18:57:26.829Z,3.80
2023-04-29T18:59:56.903Z,4.40
2023-04-29T19:02:27.732Z,7.70
2023-04-29T19:04:57.633Z,17.40
2023-04-29T19:07:24.650Z,46.10
2023-04-29T19:09:51.668Z,55.50
2023-04-29T19:12:18.605Z,59.10
2023-04-29T19:14:45.446Z,57.80
2023-04-29T19:17:12.274Z,59.00
2023-04-29T19:19:39.240Z,49.80
2023-04-29T19:22:09.010Z,44.40
2023-04-29T19:24:37.165Z,42.20
2023-04-29T19:27:04.217Z,35.60
2023-04-29T19:29:35.819Z,37.80
2023-04-29T19:32:03.678Z,35.80
2023-04-29T19:34:30.947Z,26.10
2023-04-29T19:36:57.990Z,22.60
2023-04-29T19:39:25.498Z,25.30
2023-04-29T19:41:52.364Z,26.10
2023-04-29T19:44:19.226Z,23.50
2023-04-29T19:46:46.866Z,19.80
2023-04-29T19:51:53.186Z,19.20
2023-04-29T19:54:20.129Z,18.30
2023-04-29T19:56:47.027Z,19.80
2023-04-29T19:59:13.911Z,19.50
2023-04-29T20:01:41.384Z,18.90
2023-04-29T20:04:09.227Z,21.40
2023-04-29T20:06:37.751Z,23.90
2023-04-29T20:09:04.808Z,25.10
2023-04-29T20:11:31.995Z,27.30
2023-04-29T20:13:58.999Z,23.60
2023-04-29T20:16:27.878Z,24.10
2023-04-29T20:18:54.879Z,21.00
2023-04-29T20:21:21.763Z,20.50
2023-04-29T20:23:49.257Z,20.40
2023-04-29T20:26:17.321Z,19.00
2023-04-29T20:28:49.863Z,18.80
2023-04-29T20:31:18.000Z,18.30
2023-04-29T20:33:44.813Z,21.90
2023-04-29T20:36:12.047Z,25.90
2023-04-29T20:38:39.361Z,24.60
2023-04-29T20:41:06.295Z,23.80
2023-04-29T20:43:33.204Z,21.90
2023-04-29T20:46:00.867Z,22.20
2023-04-29T20:48:28.470Z,19.30
2023-04-29T20:50:55.660Z,18.50
2023-04-29T20:53:22.669Z,18.00
2023-04-29T20:55:49.681Z,15.90
2023-04-29T20:58:16.547Z,16.30
2023-04-29T21:00:43.787Z,15.80
2023-04-29T21:03:10.895Z,16.10
2023-04-29T21:05:37.806Z,16.00
2023-04-29T21:08:04.993Z,18.30
2023-04-29T21:10:31.923Z,15.80
2023-04-29T21:12:58.980Z,17.60
2023-04-29T21:15:27.066Z,18.50
2023-04-29T21:17:54.018Z,17.10
2023-04-29T21:20:21.932Z,16.60
2023-04-29T21:22:48.954Z,16.00
2023-04-29T21:25:15.925Z,16.40
2023-04-29T21:27:42.874Z,15.30
2023-04-29T21:30:10.295Z,16.90
2023-04-29T21:32:37.222Z,16.00
2023-04-29T21:35:04.263Z,16.20
2023-04-29T21:37:31.284Z,16.30
2023-04-29T21:40:00.431Z,16.30
2023-04-29T21:42:27.301Z,16.50
2023-04-29T21:44:55.573Z,17.00
2023-04-29T21:47:22.495Z,17.40
2023-04-29T21:49:50.499Z,16.50
2023-04-29T21:52:17.572Z,17.00
2023-04-29T21:54:44.676Z,17.50
2023-04-29T21:57:11.797Z,16.90
2023-04-29T21:59:38.849Z,17.50
2023-04-29T22:02:21.985Z,16.70
2023-04-29T22:07:17.442Z,15.20
2023-04-29T22:09:49.565Z,16.30
2023-04-29T22:12:17.970Z,15.20
2023-04-29T22:14:45.018Z,15.20
2023-04-29T22:17:13.030Z,14.90
2023-04-29T22:19:40.048Z,16.70
2023-04-29T22:22:07.880Z,16.70
2023-04-29T22:24:34.854Z,19.30
2023-04-29T22:27:03.615Z,16.80
2023-04-29T22:29:30.764Z,17.00
2023-04-29T22:31:57.840Z,16.90
2023-04-29T22:34:24.985Z,17.10
2023-04-29T22:36:51.853Z,17.00
2023-04-29T22:39:18.836Z,19.10
2023-04-29T22:41:45.832Z,17.90
2023-04-29T22:44:12.804Z,17.40
2023-04-29T22:46:39.734Z,18.80
2023-04-29T22:49:06.800Z,18.10
2023-04-29T22:51:33.686Z,17.90
2023-04-29T22:54:00.658Z,16.40
2023-04-29T22:56:28.994Z,15.70
2023-04-29T22:58:56.051Z,15.20
2023-04-29T23:01:23.008Z,14.60
2023-04-29T23:03:50.058Z,14.40
2023-04-29T23:06:17.015Z,15.70
2023-04-29T23:08:44.688Z,15.40
2023-04-29T23:11:12.167Z,14.70
2023-04-29T23:13:39.400Z,14.70
2023-04-29T23:16:08.568Z,14.20
2023-04-29T23:18:37.130Z,14.30
2023-04-29T23:21:04.366Z,14.20
2023-04-29T23:23:31.492Z,14.50
2023-04-29T23:25:58.457Z,12.70
2023-04-29T23:28:25.495Z,13.40
2023-04-29T23:30:52.417Z,12.70
2023-04-29T23:33:19.282Z,13.50
2023-04-29T23:35:50.504Z,13.20
2023-04-29T23:38:18.068Z,14.30
2023-04-29T23:40:46.456Z,15.40
2023-04-29T23:43:15.057Z,14.20
2023-04-29T23:45:44.268Z,14.30
2023-04-29T23:48:12.244Z,13.10
2023-04-29T23:50:39.245Z,15.00
2023-04-29T23:53:06.385Z,13.60
2023-04-29T23:55:33.586Z,13.50
2023-04-29T23:58:00.801Z,14.30
